sensor_id;sensor_type;location;lat;lon;timestamp;temperature;humidity
7654;DHT22;3869;48.406;10.774;2024-01-27T00:01:22;2.90;99.90
7654;DHT22;3869;48.406;10.774;2024-01-27T00:03:50;3.10;99.90
7654;DHT22;3869;48.406;10.774;2024-01-27T00:06:22;3.10;99.90
7654;DHT22;3869;48.406;10.774;2024-01-27T00:08:50;3.20;99.90
7654;DHT22;3869;48.406;10.774;2024-01-27T00:11:18;3.30;99.90
7654;DHT22;3869;48.406;10.774;2024-01-27T00:13:48;3.30;99.90
7654;DHT22;3869;48.406;10.774;2024-01-27T00:16:16;3.20;99.90
7654;DHT22;3869;48.406;10.774;2024-01-27T00:18:45;3.10;99.90
7654;DHT22;3869;48.406;10.774;2024-01-27T00:21:13;3.00;99.90
7654;DHT22;3869;48.406;10.774;2024-01-27T00:23:43;2.90;99.90
7654;DHT22;3869;48.406;10.774;2024-01-27T00:26:11;2.70;99.90
7654;DHT22;3869;48.406;10.774;2024-01-27T00:28:39;2.60;99.90
7654;DHT22;3869;48.406;10.774;2024-01-27T00:31:07;2.50;99.90
7654;DHT22;3869;48.406;10.774;2024-01-27T00:33:35;2.40;99.90
7654;DHT22;3869;48.406;10.774;2024-01-27T00:36:04;2.40;99.90
7654;DHT22;3869;48.406;10.774;2024-01-27T00:38:32;2.40;99.90
7654;DHT22;3869;48.406;10.774;2024-01-27T00:41:02;2.30;99.90
7654;DHT22;3869;48.406;10.774;2024-01-27T00:43:30;2.30;99.90
7654;DHT22;3869;48.406;10.774;2024-01-27T00:45:58;2.20;99.90
7654;DHT22;3869;48.406;10.774;2024-01-27T00:48:26;2.10;99.90
7654;DHT22;3869;48.406;10.774;2024-01-27T00:50:55;2.00;99.90
7654;DHT22;3869;48.406;10.774;2024-01-27T00:53:23;1.90;99.90
7654;DHT22;3869;48.406;10.774;2024-01-27T00:55:51;1.90;99.90
7654;DHT22;3869;48.406;10.774;2024-01-27T00:58:20;1.90;99.90
7654;DHT22;3869;48.406;10.774;2024-01-27T01:00:48;2.00;99.90
7654;DHT22;3869;48.406;10.774;2024-01-27T01:03:16;2.00;99.90
7654;DHT22;3869;48.406;10.774;2024-01-27T01:05:44;2.00;99.90
7654;DHT22;3869;48.406;10.774;2024-01-27T01:08:12;2.00;99.90
7654;DHT22;3869;48.406;10.774;2024-01-27T01:10:40;2.00;99.90
7654;DHT22;3869;48.406;10.774;2024-01-27T01:13:08;2.00;99.90
7654;DHT22;3869;48.406;10.774;2024-01-27T01:15:38;2.00;99.90
7654;DHT22;3869;48.406;10.774;2024-01-27T01:18:06;1.90;99.90
7654;DHT22;3869;48.406;10.774;2024-01-27T01:20:34;1.90;99.90
7654;DHT22;3869;48.406;10.774;2024-01-27T01:23:02;1.90;99.90
7654;DHT22;3869;48.406;10.774;2024-01-27T01:25:30;1.80;99.90
7654;DHT22;3869;48.406;10.774;2024-01-27T01:27:58;1.80;99.90
7654;DHT22;3869;48.406;10.774;2024-01-27T01:30:26;1.80;99.90
7654;DHT22;3869;48.406;10.774;2024-01-27T01:32:55;1.80;99.90
7654;DHT22;3869;48.406;10.774;2024-01-27T01:35:24;1.70;99.90
7654;DHT22;3869;48.406;10.774;2024-01-27T01:37:52;1.60;99.90
7654;DHT22;3869;48.406;10.774;2024-01-27T01:40:20;1.60;99.90
7654;DHT22;3869;48.406;10.774;2024-01-27T01:42:50;1.60;99.90
7654;DHT22;3869;48.406;10.774;2024-01-27T01:45:19;1.60;99.90
7654;DHT22;3869;48.406;10.774;2024-01-27T01:47:47;1.60;99.90
7654;DHT22;3869;48.406;10.774;2024-01-27T01:50:17;1.60;99.90
7654;DHT22;3869;48.406;10.774;2024-01-27T01:52:47;1.50;99.90
7654;DHT22;3869;48.406;10.774;2024-01-27T01:55:16;1.50;99.90
7654;DHT22;3869;48.406;10.774;2024-01-27T01:57:44;1.50;99.90
7654;DHT22;3869;48.406;10.774;2024-01-27T02:00:13;1.50;99.90
7654;DHT22;3869;48.406;10.774;2024-01-27T02:02:43;1.50;99.90
7654;DHT22;3869;48.406;10.774;2024-01-27T02:05:11;1.50;99.90
7654;DHT22;3869;48.406;10.774;2024-01-27T02:07:40;1.40;99.90
7654;DHT22;3869;48.406;10.774;2024-01-27T02:10:13;1.40;99.90
7654;DHT22;3869;48.406;10.774;2024-01-27T02:12:41;1.40;99.90
7654;DHT22;3869;48.406;10.774;2024-01-27T02:15:10;1.40;99.90
7654;DHT22;3869;48.406;10.774;2024-01-27T02:17:40;1.40;99.90
7654;DHT22;3869;48.406;10.774;2024-01-27T02:20:18;1.50;99.90
7654;DHT22;3869;48.406;10.774;2024-01-27T02:22:47;1.40;99.90
7654;DHT22;3869;48.406;10.774;2024-01-27T02:25:17;1.40;99.90
7654;DHT22;3869;48.406;10.774;2024-01-27T02:27:45;1.40;99.90
7654;DHT22;3869;48.406;10.774;2024-01-27T02:30:12;1.40;99.90
7654;DHT22;3869;48.406;10.774;2024-01-27T02:32:40;1.40;99.90
7654;DHT22;3869;48.406;10.774;2024-01-27T02:35:08;1.40;99.90
7654;DHT22;3869;48.406;10.774;2024-01-27T02:37:36;1.40;99.90
7654;DHT22;3869;48.406;10.774;2024-01-27T02:40:06;1.30;99.90
7654;DHT22;3869;48.406;10.774;2024-01-27T02:42:35;1.30;99.90
7654;DHT22;3869;48.406;10.774;2024-01-27T02:45:04;1.20;99.90
7654;DHT22;3869;48.406;10.774;2024-01-27T02:47:32;1.20;99.90
7654;DHT22;3869;48.406;10.774;2024-01-27T02:50:00;1.20;99.90
7654;DHT22;3869;48.406;10.774;2024-01-27T02:52:28;1.20;99.90
7654;DHT22;3869;48.406;10.774;2024-01-27T02:54:56;1.20;99.90
7654;DHT22;3869;48.406;10.774;2024-01-27T02:57:24;1.20;99.90
7654;DHT22;3869;48.406;10.774;2024-01-27T02:59:54;1.20;99.90
7654;DHT22;3869;48.406;10.774;2024-01-27T03:02:22;1.20;99.90
7654;DHT22;3869;48.406;10.774;2024-01-27T03:04:50;1.20;99.90
7654;DHT22;3869;48.406;10.774;2024-01-27T03:07:18;1.20;99.90
7654;DHT22;3869;48.406;10.774;2024-01-27T03:09:46;1.10;99.90
7654;DHT22;3869;48.406;10.774;2024-01-27T03:12:14;1.00;99.90
7654;DHT22;3869;48.406;10.774;2024-01-27T03:14:43;1.00;99.90
7654;DHT22;3869;48.406;10.774;2024-01-27T03:17:12;0.90;99.90
7654;DHT22;3869;48.406;10.774;2024-01-27T03:19:40;0.90;99.90
7654;DHT22;3869;48.406;10.774;2024-01-27T03:22:11;0.80;99.90
7654;DHT22;3869;48.406;10.774;2024-01-27T03:24:39;0.90;99.90
7654;DHT22;3869;48.406;10.774;2024-01-27T03:27:08;0.90;99.90
7654;DHT22;3869;48.406;10.774;2024-01-27T03:29:36;0.90;99.90
7654;DHT22;3869;48.406;10.774;2024-01-27T03:32:04;0.90;99.90
7654;DHT22;3869;48.406;10.774;2024-01-27T03:34:34;0.90;99.90
7654;DHT22;3869;48.406;10.774;2024-01-27T03:37:02;0.90;99.90
7654;DHT22;3869;48.406;10.774;2024-01-27T03:39:30;0.90;99.90
7654;DHT22;3869;48.406;10.774;2024-01-27T03:41:58;0.90;99.90
7654;DHT22;3869;48.406;10.774;2024-01-27T03:44:26;0.90;99.90
7654;DHT22;3869;48.406;10.774;2024-01-27T03:46:54;0.90;99.90
7654;DHT22;3869;48.406;10.774;2024-01-27T03:49:22;0.90;99.90
7654;DHT22;3869;48.406;10.774;2024-01-27T03:51:51;0.90;99.90
7654;DHT22;3869;48.406;10.774;2024-01-27T03:54:19;0.90;99.90
7654;DHT22;3869;48.406;10.774;2024-01-27T03:56:47;0.90;99.90
7654;DHT22;3869;48.406;10.774;2024-01-27T03:59:15;0.90;99.90
7654;DHT22;3869;48.406;10.774;2024-01-27T04:01:44;0.80;99.90
7654;DHT22;3869;48.406;10.774;2024-01-27T04:04:12;0.80;99.90
7654;DHT22;3869;48.406;10.774;2024-01-27T04:06:41;0.70;99.90
7654;DHT22;3869;48.406;10.774;2024-01-27T04:09:11;0.70;99.90
7654;DHT22;3869;48.406;10.774;2024-01-27T04:11:40;0.70;99.90
7654;DHT22;3869;48.406;10.774;2024-01-27T04:14:08;0.70;99.90
7654;DHT22;3869;48.406;10.774;2024-01-27T04:16:36;0.70;99.90
7654;DHT22;3869;48.406;10.774;2024-01-27T04:19:05;0.70;99.90
7654;DHT22;3869;48.406;10.774;2024-01-27T04:21:33;0.70;99.90
7654;DHT22;3869;48.406;10.774;2024-01-27T04:24:01;0.70;99.90
7654;DHT22;3869;48.406;10.774;2024-01-27T04:26:30;0.70;99.90
7654;DHT22;3869;48.406;10.774;2024-01-27T04:28:59;0.60;99.90
7654;DHT22;3869;48.406;10.774;2024-01-27T04:31:27;0.70;99.90
7654;DHT22;3869;48.406;10.774;2024-01-27T04:33:55;0.60;99.90
7654;DHT22;3869;48.406;10.774;2024-01-27T04:36:26;0.70;99.90
7654;DHT22;3869;48.406;10.774;2024-01-27T04:38:56;0.80;99.90
7654;DHT22;3869;48.406;10.774;2024-01-27T04:41:24;0.90;99.90
7654;DHT22;3869;48.406;10.774;2024-01-27T04:43:53;1.10;99.90
7654;DHT22;3869;48.406;10.774;2024-01-27T04:46:23;1.10;99.90
7654;DHT22;3869;48.406;10.774;2024-01-27T04:48:51;1.10;99.90
7654;DHT22;3869;48.406;10.774;2024-01-27T04:51:19;1.20;99.90
7654;DHT22;3869;48.406;10.774;2024-01-27T04:53:47;1.30;99.90
7654;DHT22;3869;48.406;10.774;2024-01-27T04:56:15;1.40;99.90
7654;DHT22;3869;48.406;10.774;2024-01-27T04:58:43;1.50;99.90
7654;DHT22;3869;48.406;10.774;2024-01-27T05:01:12;1.40;99.90
7654;DHT22;3869;48.406;10.774;2024-01-27T05:03:40;1.50;99.90
7654;DHT22;3869;48.406;10.774;2024-01-27T05:06:09;1.50;99.90
7654;DHT22;3869;48.406;10.774;2024-01-27T05:08:37;1.60;99.90
7654;DHT22;3869;48.406;10.774;2024-01-27T05:11:06;1.60;99.90
7654;DHT22;3869;48.406;10.774;2024-01-27T05:13:34;1.70;99.90
7654;DHT22;3869;48.406;10.774;2024-01-27T05:16:05;1.70;99.90
7654;DHT22;3869;48.406;10.774;2024-01-27T05:18:34;1.60;99.90
7654;DHT22;3869;48.406;10.774;2024-01-27T05:21:02;1.60;99.90
7654;DHT22;3869;48.406;10.774;2024-01-27T05:23:30;1.60;99.90
7654;DHT22;3869;48.406;10.774;2024-01-27T05:25:58;1.60;99.90
7654;DHT22;3869;48.406;10.774;2024-01-27T05:28:26;1.60;99.90
7654;DHT22;3869;48.406;10.774;2024-01-27T05:30:54;1.50;99.90
7654;DHT22;3869;48.406;10.774;2024-01-27T05:33:22;1.40;99.90
7654;DHT22;3869;48.406;10.774;2024-01-27T05:35:52;1.30;99.90
7654;DHT22;3869;48.406;10.774;2024-01-27T05:38:20;1.20;99.90
7654;DHT22;3869;48.406;10.774;2024-01-27T05:40:48;1.10;99.90
7654;DHT22;3869;48.406;10.774;2024-01-27T05:43:17;1.00;99.90
7654;DHT22;3869;48.406;10.774;2024-01-27T05:45:46;1.00;99.90
7654;DHT22;3869;48.406;10.774;2024-01-27T05:48:14;1.00;99.90
7654;DHT22;3869;48.406;10.774;2024-01-27T05:50:42;1.10;99.90
7654;DHT22;3869;48.406;10.774;2024-01-27T05:53:12;1.10;99.90
7654;DHT22;3869;48.406;10.774;2024-01-27T05:55:40;1.20;99.90
7654;DHT22;3869;48.406;10.774;2024-01-27T05:58:08;1.20;99.90
7654;DHT22;3869;48.406;10.774;2024-01-27T06:00:36;1.30;99.90
7654;DHT22;3869;48.406;10.774;2024-01-27T06:03:04;1.30;99.90
7654;DHT22;3869;48.406;10.774;2024-01-27T06:05:33;1.40;99.90
7654;DHT22;3869;48.406;10.774;2024-01-27T06:08:01;1.20;99.90
7654;DHT22;3869;48.406;10.774;2024-01-27T06:10:30;1.20;99.90
7654;DHT22;3869;48.406;10.774;2024-01-27T06:12:58;1.30;99.90
7654;DHT22;3869;48.406;10.774;2024-01-27T06:15:26;1.30;99.90
7654;DHT22;3869;48.406;10.774;2024-01-27T06:17:54;1.40;99.90
7654;DHT22;3869;48.406;10.774;2024-01-27T06:20:22;1.30;99.90
7654;DHT22;3869;48.406;10.774;2024-01-27T06:22:51;1.30;99.90
7654;DHT22;3869;48.406;10.774;2024-01-27T06:25:20;1.30;99.90
7654;DHT22;3869;48.406;10.774;2024-01-27T06:27:49;1.30;99.90
7654;DHT22;3869;48.406;10.774;2024-01-27T06:30:18;1.30;99.90
7654;DHT22;3869;48.406;10.774;2024-01-27T06:32:46;1.30;99.90
7654;DHT22;3869;48.406;10.774;2024-01-27T06:35:15;1.40;99.90
7654;DHT22;3869;48.406;10.774;2024-01-27T06:37:43;1.30;99.90
7654;DHT22;3869;48.406;10.774;2024-01-27T06:40:12;1.30;99.90
7654;DHT22;3869;48.406;10.774;2024-01-27T06:42:41;1.30;99.90
7654;DHT22;3869;48.406;10.774;2024-01-27T06:45:11;1.20;99.90
7654;DHT22;3869;48.406;10.774;2024-01-27T06:47:39;1.10;99.90
7654;DHT22;3869;48.406;10.774;2024-01-27T06:50:08;1.10;99.90
7654;DHT22;3869;48.406;10.774;2024-01-27T06:52:36;1.10;99.90
7654;DHT22;3869;48.406;10.774;2024-01-27T06:55:05;1.10;99.90
7654;DHT22;3869;48.406;10.774;2024-01-27T06:57:33;1.10;99.90
7654;DHT22;3869;48.406;10.774;2024-01-27T07:00:02;1.00;99.90
7654;DHT22;3869;48.406;10.774;2024-01-27T07:02:31;1.00;99.90
7654;DHT22;3869;48.406;10.774;2024-01-27T07:04:59;1.00;99.90
7654;DHT22;3869;48.406;10.774;2024-01-27T07:07:28;1.00;99.90
7654;DHT22;3869;48.406;10.774;2024-01-27T07:09:56;1.00;99.90
7654;DHT22;3869;48.406;10.774;2024-01-27T07:12:25;1.10;99.90
7654;DHT22;3869;48.406;10.774;2024-01-27T07:14:53;1.00;99.90
7654;DHT22;3869;48.406;10.774;2024-01-27T07:17:23;0.90;99.90
7654;DHT22;3869;48.406;10.774;2024-01-27T07:19:54;1.00;99.90
7654;DHT22;3869;48.406;10.774;2024-01-27T07:22:22;1.00;99.90
7654;DHT22;3869;48.406;10.774;2024-01-27T07:24:51;1.00;99.90
7654;DHT22;3869;48.406;10.774;2024-01-27T07:27:19;1.00;99.90
7654;DHT22;3869;48.406;10.774;2024-01-27T07:29:47;1.00;99.90
7654;DHT22;3869;48.406;10.774;2024-01-27T07:32:16;1.00;99.90
7654;DHT22;3869;48.406;10.774;2024-01-27T07:34:44;0.90;99.90
7654;DHT22;3869;48.406;10.774;2024-01-27T07:37:13;0.80;99.90
7654;DHT22;3869;48.406;10.774;2024-01-27T07:39:41;0.80;99.90
7654;DHT22;3869;48.406;10.774;2024-01-27T07:42:10;0.70;99.90
7654;DHT22;3869;48.406;10.774;2024-01-27T07:44:38;0.70;99.90
7654;DHT22;3869;48.406;10.774;2024-01-27T07:47:06;0.60;99.90
7654;DHT22;3869;48.406;10.774;2024-01-27T07:49:35;0.50;99.90
7654;DHT22;3869;48.406;10.774;2024-01-27T07:52:04;0.50;99.90
7654;DHT22;3869;48.406;10.774;2024-01-27T07:54:33;0.50;99.90
7654;DHT22;3869;48.406;10.774;2024-01-27T07:57:06;0.40;99.90
7654;DHT22;3869;48.406;10.774;2024-01-27T07:59:34;0.40;99.90
7654;DHT22;3869;48.406;10.774;2024-01-27T08:02:02;0.40;99.90
7654;DHT22;3869;48.406;10.774;2024-01-27T08:04:30;0.40;99.90
7654;DHT22;3869;48.406;10.774;2024-01-27T08:06:59;0.40;99.90
7654;DHT22;3869;48.406;10.774;2024-01-27T08:09:34;0.50;99.90
7654;DHT22;3869;48.406;10.774;2024-01-27T08:12:02;0.50;99.90
7654;DHT22;3869;48.406;10.774;2024-01-27T08:14:31;0.60;99.90
7654;DHT22;3869;48.406;10.774;2024-01-27T08:16:59;0.60;99.90
7654;DHT22;3869;48.406;10.774;2024-01-27T08:19:29;0.60;99.90
7654;DHT22;3869;48.406;10.774;2024-01-27T08:21:57;0.70;99.90
7654;DHT22;3869;48.406;10.774;2024-01-27T08:24:25;0.80;99.90
7654;DHT22;3869;48.406;10.774;2024-01-27T08:26:55;0.90;99.90
7654;DHT22;3869;48.406;10.774;2024-01-27T08:29:23;0.90;99.90
7654;DHT22;3869;48.406;10.774;2024-01-27T08:31:51;0.90;99.90
7654;DHT22;3869;48.406;10.774;2024-01-27T08:34:20;0.90;99.90
7654;DHT22;3869;48.406;10.774;2024-01-27T08:36:48;0.90;99.90
7654;DHT22;3869;48.406;10.774;2024-01-27T08:39:16;1.00;99.90
7654;DHT22;3869;48.406;10.774;2024-01-27T08:41:44;1.10;99.90
7654;DHT22;3869;48.406;10.774;2024-01-27T08:44:13;1.10;99.90
7654;DHT22;3869;48.406;10.774;2024-01-27T08:46:41;1.20;99.90
7654;DHT22;3869;48.406;10.774;2024-01-27T08:49:09;1.30;99.90
7654;DHT22;3869;48.406;10.774;2024-01-27T08:51:37;1.40;99.90
7654;DHT22;3869;48.406;10.774;2024-01-27T08:54:06;1.40;99.90
7654;DHT22;3869;48.406;10.774;2024-01-27T08:56:34;1.50;99.90
7654;DHT22;3869;48.406;10.774;2024-01-27T08:59:06;1.50;99.90
7654;DHT22;3869;48.406;10.774;2024-01-27T09:01:35;1.60;99.90
7654;DHT22;3869;48.406;10.774;2024-01-27T09:04:04;1.70;99.90
7654;DHT22;3869;48.406;10.774;2024-01-27T09:06:32;1.70;99.90
7654;DHT22;3869;48.406;10.774;2024-01-27T09:09:00;1.80;99.90
7654;DHT22;3869;48.406;10.774;2024-01-27T09:11:28;1.80;99.90
7654;DHT22;3869;48.406;10.774;2024-01-27T09:13:57;1.90;99.90
7654;DHT22;3869;48.406;10.774;2024-01-27T09:16:25;1.90;99.90
7654;DHT22;3869;48.406;10.774;2024-01-27T09:18:54;2.00;99.90
7654;DHT22;3869;48.406;10.774;2024-01-27T09:21:22;2.00;99.90
7654;DHT22;3869;48.406;10.774;2024-01-27T09:23:55;2.10;99.90
7654;DHT22;3869;48.406;10.774;2024-01-27T09:26:24;2.10;99.90
7654;DHT22;3869;48.406;10.774;2024-01-27T09:28:52;2.20;99.90
7654;DHT22;3869;48.406;10.774;2024-01-27T09:31:22;2.20;99.90
7654;DHT22;3869;48.406;10.774;2024-01-27T09:33:51;2.30;99.90
7654;DHT22;3869;48.406;10.774;2024-01-27T09:36:22;2.40;99.90
7654;DHT22;3869;48.406;10.774;2024-01-27T09:38:50;2.40;99.90
7654;DHT22;3869;48.406;10.774;2024-01-27T09:41:19;2.40;99.90
7654;DHT22;3869;48.406;10.774;2024-01-27T09:43:47;2.50;99.90
7654;DHT22;3869;48.406;10.774;2024-01-27T09:46:16;2.50;99.90
7654;DHT22;3869;48.406;10.774;2024-01-27T09:48:44;2.60;99.90
7654;DHT22;3869;48.406;10.774;2024-01-27T09:51:13;2.60;99.90
7654;DHT22;3869;48.406;10.774;2024-01-27T09:53:43;2.70;99.90
7654;DHT22;3869;48.406;10.774;2024-01-27T09:56:12;2.70;99.90
7654;DHT22;3869;48.406;10.774;2024-01-27T09:58:45;2.80;99.90
7654;DHT22;3869;48.406;10.774;2024-01-27T10:01:14;2.80;99.90
7654;DHT22;3869;48.406;10.774;2024-01-27T10:03:43;2.80;99.90
7654;DHT22;3869;48.406;10.774;2024-01-27T10:06:12;2.90;99.90
7654;DHT22;3869;48.406;10.774;2024-01-27T10:08:44;2.90;99.90
7654;DHT22;3869;48.406;10.774;2024-01-27T10:11:15;3.00;99.90
7654;DHT22;3869;48.406;10.774;2024-01-27T10:13:44;3.00;99.90
7654;DHT22;3869;48.406;10.774;2024-01-27T10:16:12;3.00;99.90
7654;DHT22;3869;48.406;10.774;2024-01-27T10:18:40;3.10;99.90
7654;DHT22;3869;48.406;10.774;2024-01-27T10:21:14;3.10;99.90
7654;DHT22;3869;48.406;10.774;2024-01-27T10:23:44;3.10;99.90
7654;DHT22;3869;48.406;10.774;2024-01-27T10:26:12;3.10;99.90
7654;DHT22;3869;48.406;10.774;2024-01-27T10:28:41;3.20;99.90
7654;DHT22;3869;48.406;10.774;2024-01-27T10:31:09;3.20;99.90
7654;DHT22;3869;48.406;10.774;2024-01-27T10:33:38;3.20;99.90
7654;DHT22;3869;48.406;10.774;2024-01-27T10:36:06;3.30;99.90
7654;DHT22;3869;48.406;10.774;2024-01-27T10:38:35;3.30;99.90
7654;DHT22;3869;48.406;10.774;2024-01-27T10:41:08;3.40;99.90
7654;DHT22;3869;48.406;10.774;2024-01-27T10:43:38;3.40;99.90
7654;DHT22;3869;48.406;10.774;2024-01-27T10:46:07;3.40;99.90
7654;DHT22;3869;48.406;10.774;2024-01-27T10:48:35;3.50;99.90
7654;DHT22;3869;48.406;10.774;2024-01-27T10:51:09;3.50;99.90
7654;DHT22;3869;48.406;10.774;2024-01-27T10:53:38;3.50;99.90
7654;DHT22;3869;48.406;10.774;2024-01-27T10:56:10;3.50;99.90
7654;DHT22;3869;48.406;10.774;2024-01-27T10:58:39;3.50;99.90
7654;DHT22;3869;48.406;10.774;2024-01-27T11:01:10;3.60;99.90
7654;DHT22;3869;48.406;10.774;2024-01-27T11:03:39;3.60;99.90
7654;DHT22;3869;48.406;10.774;2024-01-27T11:06:09;3.70;99.90
7654;DHT22;3869;48.406;10.774;2024-01-27T11:08:39;3.70;99.90
7654;DHT22;3869;48.406;10.774;2024-01-27T11:11:11;3.70;99.90
7654;DHT22;3869;48.406;10.774;2024-01-27T11:13:40;3.80;99.90
7654;DHT22;3869;48.406;10.774;2024-01-27T11:16:15;3.90;99.90
7654;DHT22;3869;48.406;10.774;2024-01-27T11:18:44;3.90;99.90
7654;DHT22;3869;48.406;10.774;2024-01-27T11:21:14;4.00;99.90
7654;DHT22;3869;48.406;10.774;2024-01-27T11:23:43;4.00;99.90
7654;DHT22;3869;48.406;10.774;2024-01-27T11:26:19;4.10;99.90
7654;DHT22;3869;48.406;10.774;2024-01-27T11:28:47;4.10;99.90
7654;DHT22;3869;48.406;10.774;2024-01-27T11:31:18;4.20;99.90
7654;DHT22;3869;48.406;10.774;2024-01-27T11:33:49;4.30;99.90
7654;DHT22;3869;48.406;10.774;2024-01-27T11:36:21;4.30;99.90
7654;DHT22;3869;48.406;10.774;2024-01-27T11:38:50;4.40;99.90
7654;DHT22;3869;48.406;10.774;2024-01-27T11:41:28;4.40;99.90
7654;DHT22;3869;48.406;10.774;2024-01-27T11:43:57;4.40;99.90
7654;DHT22;3869;48.406;10.774;2024-01-27T11:46:26;4.50;99.90
7654;DHT22;3869;48.406;10.774;2024-01-27T11:48:54;4.50;99.90
7654;DHT22;3869;48.406;10.774;2024-01-27T11:51:22;4.50;99.90
7654;DHT22;3869;48.406;10.774;2024-01-27T11:53:52;4.60;99.90
7654;DHT22;3869;48.406;10.774;2024-01-27T11:56:21;4.70;99.90
7654;DHT22;3869;48.406;10.774;2024-01-27T11:58:50;4.70;99.90
7654;DHT22;3869;48.406;10.774;2024-01-27T12:01:18;4.80;99.90
7654;DHT22;3869;48.406;10.774;2024-01-27T12:03:46;4.80;99.90
7654;DHT22;3869;48.406;10.774;2024-01-27T12:06:15;4.80;99.90
7654;DHT22;3869;48.406;10.774;2024-01-27T12:08:44;4.90;99.90
7654;DHT22;3869;48.406;10.774;2024-01-27T12:11:15;4.90;99.90
7654;DHT22;3869;48.406;10.774;2024-01-27T12:13:52;4.90;99.90
7654;DHT22;3869;48.406;10.774;2024-01-27T12:16:22;4.90;99.90
7654;DHT22;3869;48.406;10.774;2024-01-27T12:18:52;5.00;99.90
7654;DHT22;3869;48.406;10.774;2024-01-27T12:21:21;5.10;99.90
7654;DHT22;3869;48.406;10.774;2024-01-27T12:23:51;5.10;99.90
7654;DHT22;3869;48.406;10.774;2024-01-27T12:26:20;5.10;99.90
7654;DHT22;3869;48.406;10.774;2024-01-27T12:28:49;5.20;99.90
7654;DHT22;3869;48.406;10.774;2024-01-27T12:31:19;5.20;99.90
7654;DHT22;3869;48.406;10.774;2024-01-27T12:33:51;5.30;99.90
7654;DHT22;3869;48.406;10.774;2024-01-27T12:36:20;5.30;99.90
7654;DHT22;3869;48.406;10.774;2024-01-27T12:38:56;5.20;99.90
7654;DHT22;3869;48.406;10.774;2024-01-27T12:41:25;5.30;99.90
7654;DHT22;3869;48.406;10.774;2024-01-27T12:43:53;5.30;99.90
7654;DHT22;3869;48.406;10.774;2024-01-27T12:46:23;5.40;99.90
7654;DHT22;3869;48.406;10.774;2024-01-27T12:48:51;5.40;99.90
7654;DHT22;3869;48.406;10.774;2024-01-27T12:51:20;5.50;99.90
7654;DHT22;3869;48.406;10.774;2024-01-27T12:53:48;5.50;99.90
7654;DHT22;3869;48.406;10.774;2024-01-27T12:56:16;5.60;99.90
7654;DHT22;3869;48.406;10.774;2024-01-27T12:58:44;5.60;99.90
7654;DHT22;3869;48.406;10.774;2024-01-27T13:01:12;5.70;99.90
7654;DHT22;3869;48.406;10.774;2024-01-27T13:03:42;5.60;99.90
7654;DHT22;3869;48.406;10.774;2024-01-27T13:06:12;5.70;99.90
7654;DHT22;3869;48.406;10.774;2024-01-27T13:08:41;5.70;99.90
7654;DHT22;3869;48.406;10.774;2024-01-27T13:11:09;5.70;99.90
7654;DHT22;3869;48.406;10.774;2024-01-27T13:13:40;5.70;99.90
7654;DHT22;3869;48.406;10.774;2024-01-27T13:16:08;5.70;99.90
7654;DHT22;3869;48.406;10.774;2024-01-27T13:18:37;5.70;99.90
7654;DHT22;3869;48.406;10.774;2024-01-27T13:21:06;5.70;99.90
7654;DHT22;3869;48.406;10.774;2024-01-27T13:23:35;5.70;99.90
7654;DHT22;3869;48.406;10.774;2024-01-27T13:26:03;5.70;99.90
7654;DHT22;3869;48.406;10.774;2024-01-27T13:28:44;5.80;99.90
7654;DHT22;3869;48.406;10.774;2024-01-27T13:31:12;5.80;99.90
7654;DHT22;3869;48.406;10.774;2024-01-27T13:33:41;5.80;99.90
7654;DHT22;3869;48.406;10.774;2024-01-27T13:36:10;5.80;99.90
7654;DHT22;3869;48.406;10.774;2024-01-27T13:38:38;5.80;99.90
7654;DHT22;3869;48.406;10.774;2024-01-27T13:41:06;5.80;99.90
7654;DHT22;3869;48.406;10.774;2024-01-27T13:43:34;5.70;99.90
7654;DHT22;3869;48.406;10.774;2024-01-27T13:46:03;5.70;99.90
7654;DHT22;3869;48.406;10.774;2024-01-27T13:48:31;5.70;99.90
7654;DHT22;3869;48.406;10.774;2024-01-27T13:50:59;5.70;99.90
7654;DHT22;3869;48.406;10.774;2024-01-27T13:53:29;5.70;99.90
7654;DHT22;3869;48.406;10.774;2024-01-27T13:56:12;5.70;99.90
7654;DHT22;3869;48.406;10.774;2024-01-27T13:58:40;5.70;99.90
7654;DHT22;3869;48.406;10.774;2024-01-27T14:01:09;5.70;99.90
7654;DHT22;3869;48.406;10.774;2024-01-27T14:03:37;5.70;99.90
7654;DHT22;3869;48.406;10.774;2024-01-27T14:06:06;5.70;99.90
7654;DHT22;3869;48.406;10.774;2024-01-27T14:08:41;5.70;99.90
7654;DHT22;3869;48.406;10.774;2024-01-27T14:11:09;5.70;99.90
7654;DHT22;3869;48.406;10.774;2024-01-27T14:13:37;5.70;99.90
7654;DHT22;3869;48.406;10.774;2024-01-27T14:16:06;5.70;99.90
7654;DHT22;3869;48.406;10.774;2024-01-27T14:18:34;5.70;99.90
7654;DHT22;3869;48.406;10.774;2024-01-27T14:21:02;5.70;99.90
7654;DHT22;3869;48.406;10.774;2024-01-27T14:23:30;5.70;99.90
7654;DHT22;3869;48.406;10.774;2024-01-27T14:26:00;5.70;99.90
7654;DHT22;3869;48.406;10.774;2024-01-27T14:28:28;5.70;99.90
7654;DHT22;3869;48.406;10.774;2024-01-27T14:30:56;5.70;99.90
7654;DHT22;3869;48.406;10.774;2024-01-27T14:33:24;5.60;99.90
7654;DHT22;3869;48.406;10.774;2024-01-27T14:35:53;5.60;99.90
7654;DHT22;3869;48.406;10.774;2024-01-27T14:38:21;5.60;99.90
7654;DHT22;3869;48.406;10.774;2024-01-27T14:40:49;5.50;99.90
7654;DHT22;3869;48.406;10.774;2024-01-27T14:43:18;5.50;99.90
7654;DHT22;3869;48.406;10.774;2024-01-27T14:45:46;5.50;99.90
7654;DHT22;3869;48.406;10.774;2024-01-27T14:48:15;5.50;99.90
7654;DHT22;3869;48.406;10.774;2024-01-27T14:50:45;5.40;99.90
7654;DHT22;3869;48.406;10.774;2024-01-27T14:53:19;5.40;99.90
7654;DHT22;3869;48.406;10.774;2024-01-27T14:55:47;5.40;99.90
7654;DHT22;3869;48.406;10.774;2024-01-27T14:58:15;5.30;99.90
7654;DHT22;3869;48.406;10.774;2024-01-27T15:00:45;5.30;99.90
7654;DHT22;3869;48.406;10.774;2024-01-27T15:03:20;5.30;99.90
7654;DHT22;3869;48.406;10.774;2024-01-27T15:05:48;5.30;99.90
7654;DHT22;3869;48.406;10.774;2024-01-27T15:08:17;5.30;99.90
7654;DHT22;3869;48.406;10.774;2024-01-27T15:10:45;5.20;99.90
7654;DHT22;3869;48.406;10.774;2024-01-27T15:13:14;5.20;99.90
7654;DHT22;3869;48.406;10.774;2024-01-27T15:15:45;5.20;99.90
7654;DHT22;3869;48.406;10.774;2024-01-27T15:18:13;5.20;99.90
7654;DHT22;3869;48.406;10.774;2024-01-27T15:20:43;5.20;99.90
7654;DHT22;3869;48.406;10.774;2024-01-27T15:23:11;5.20;99.90
7654;DHT22;3869;48.406;10.774;2024-01-27T15:25:39;5.20;99.90
7654;DHT22;3869;48.406;10.774;2024-01-27T15:28:08;5.20;99.90
7654;DHT22;3869;48.406;10.774;2024-01-27T15:30:36;5.10;99.90
7654;DHT22;3869;48.406;10.774;2024-01-27T15:33:05;5.10;99.90
7654;DHT22;3869;48.406;10.774;2024-01-27T15:35:33;5.00;99.90
7654;DHT22;3869;48.406;10.774;2024-01-27T15:38:06;5.00;99.90
7654;DHT22;3869;48.406;10.774;2024-01-27T15:40:35;5.00;99.90
7654;DHT22;3869;48.406;10.774;2024-01-27T15:43:03;4.90;99.90
7654;DHT22;3869;48.406;10.774;2024-01-27T15:45:31;4.90;99.90
7654;DHT22;3869;48.406;10.774;2024-01-27T15:48:00;4.90;99.90
7654;DHT22;3869;48.406;10.774;2024-01-27T15:50:29;4.80;99.90
7654;DHT22;3869;48.406;10.774;2024-01-27T15:52:59;4.70;99.90
7654;DHT22;3869;48.406;10.774;2024-01-27T15:55:29;4.70;99.90
7654;DHT22;3869;48.406;10.774;2024-01-27T15:58:00;4.70;99.90
7654;DHT22;3869;48.406;10.774;2024-01-27T16:00:28;4.60;99.90
7654;DHT22;3869;48.406;10.774;2024-01-27T16:02:56;4.60;99.90
7654;DHT22;3869;48.406;10.774;2024-01-27T16:05:25;4.50;99.90
7654;DHT22;3869;48.406;10.774;2024-01-27T16:07:54;4.50;99.90
7654;DHT22;3869;48.406;10.774;2024-01-27T16:10:22;4.40;99.90
7654;DHT22;3869;48.406;10.774;2024-01-27T16:12:50;4.30;99.90